sensor_id;sensor_type;location;lat;lon;timestamp;pressure;altitude;pressure_sealevel;temperature;humidity
45941;BME280;31858;46.008;8.978;2023-03-12T00:00:47;93486.91;;;11.20;49.16
45941;BME280;31858;46.008;8.978;2023-03-12T00:10:49;93510.78;;;10.96;50.07
45941;BME280;31858;46.008;8.978;2023-03-12T00:20:55;93518.13;;;10.85;56.69
45941;BME280;31858;46.008;8.978;2023-03-12T00:30:56;93538.81;;;10.74;62.65
45941;BME280;31858;46.008;8.978;2023-03-12T00:40:59;93537.09;;;10.53;74.54
45941;BME280;31858;46.008;8.978;2023-03-12T00:51:01;93545.72;;;10.27;100.00
45941;BME280;31858;46.008;8.978;2023-03-12T01:01:04;93555.91;;;9.76;100.00
45941;BME280;31858;46.008;8.978;2023-03-12T01:11:06;93577.34;;;9.44;100.00
45941;BME280;31858;46.008;8.978;2023-03-12T01:21:09;93590.28;;;9.35;100.00
45941;BME280;31858;46.008;8.978;2023-03-12T01:31:13;93604.78;;;9.13;100.00
45941;BME280;31858;46.008;8.978;2023-03-12T01:41:16;93627.63;;;8.96;100.00
45941;BME280;31858;46.008;8.978;2023-03-12T01:51:19;93630.66;;;8.95;100.00
45941;BME280;31858;46.008;8.978;2023-03-12T02:01:23;93631.06;;;8.82;100.00
45941;BME280;31858;46.008;8.978;2023-03-12T02:11:25;93650.41;;;8.76;100.00
45941;BME280;31858;46.008;8.978;2023-03-12T02:21:31;93659.50;;;8.61;100.00
45941;BME280;31858;46.008;8.978;2023-03-12T02:31:41;93660.66;;;8.56;100.00
45941;BME280;31858;46.008;8.978;2023-03-12T02:41:45;93669.00;;;8.51;100.00
45941;BME280;31858;46.008;8.978;2023-03-12T02:51:51;93681.91;;;8.67;100.00
45941;BME280;31858;46.008;8.978;2023-03-12T03:01:54;93686.06;;;8.61;100.00
45941;BME280;31858;46.008;8.978;2023-03-12T03:11:57;93704.66;;;8.82;100.00
45941;BME280;31858;46.008;8.978;2023-03-12T03:21:59;93727.06;;;8.81;100.00
45941;BME280;31858;46.008;8.978;2023-03-12T03:32:02;93752.81;;;8.48;100.00
45941;BME280;31858;46.008;8.978;2023-03-12T03:42:04;93755.06;;;8.39;100.00
45941;BME280;31858;46.008;8.978;2023-03-12T03:52:06;93766.88;;;8.70;100.00
45941;BME280;31858;46.008;8.978;2023-03-12T04:02:08;93800.25;;;8.57;100.00
45941;BME280;31858;46.008;8.978;2023-03-12T04:12:11;93798.22;;;8.29;100.00
45941;BME280;31858;46.008;8.978;2023-03-12T04:22:13;93814.19;;;8.33;100.00
45941;BME280;31858;46.008;8.978;2023-03-12T04:32:16;93820.25;;;8.33;100.00
45941;BME280;31858;46.008;8.978;2023-03-12T04:42:17;93824.69;;;8.11;100.00
45941;BME280;31858;46.008;8.978;2023-03-12T04:52:20;93836.13;;;8.23;100.00
45941;BME280;31858;46.008;8.978;2023-03-12T05:02:22;93863.72;;;8.11;100.00
45941;BME280;31858;46.008;8.978;2023-03-12T05:12:25;93874.69;;;8.06;100.00
45941;BME280;31858;46.008;8.978;2023-03-12T05:22:26;93877.66;;;7.97;100.00
45941;BME280;31858;46.008;8.978;2023-03-12T05:32:30;93889.03;;;7.98;100.00
45941;BME280;31858;46.008;8.978;2023-03-12T05:42:32;93900.34;;;7.88;100.00
45941;BME280;31858;46.008;8.978;2023-03-12T05:52:35;93902.38;;;8.08;100.00
45941;BME280;31858;46.008;8.978;2023-03-12T06:02:36;93914.69;;;7.76;100.00
45941;BME280;31858;46.008;8.978;2023-03-12T06:12:39;93925.16;;;7.58;100.00
45941;BME280;31858;46.008;8.978;2023-03-12T06:22:41;93919.13;;;7.61;100.00
45941;BME280;31858;46.008;8.978;2023-03-12T06:32:44;93931.91;;;7.52;100.00
45941;BME280;31858;46.008;8.978;2023-03-12T06:42:45;93941.22;;;7.79;100.00
45941;BME280;31858;46.008;8.978;2023-03-12T06:52:48;93938.00;;;7.56;100.00
45941;BME280;31858;46.008;8.978;2023-03-12T07:02:51;93973.53;;;7.48;100.00
45941;BME280;31858;46.008;8.978;2023-03-12T07:12:54;93991.66;;;7.42;100.00
45941;BME280;31858;46.008;8.978;2023-03-12T07:22:55;94022.94;;;7.30;100.00
45941;BME280;31858;46.008;8.978;2023-03-12T07:32:58;94045.34;;;7.36;100.00
45941;BME280;31858;46.008;8.978;2023-03-12T07:43:01;94045.22;;;7.25;100.00
45941;BME280;31858;46.008;8.978;2023-03-12T07:53:06;94075.19;;;7.29;100.00
45941;BME280;31858;46.008;8.978;2023-03-12T08:03:07;94084.38;;;7.39;100.00
45941;BME280;31858;46.008;8.978;2023-03-12T08:13:10;94095.53;;;7.22;100.00
45941;BME280;31858;46.008;8.978;2023-03-12T08:23:12;94109.63;;;7.29;100.00
45941;BME280;31858;46.008;8.978;2023-03-12T08:33:15;94104.81;;;7.38;100.00
45941;BME280;31858;46.008;8.978;2023-03-12T08:43:17;94107.50;;;7.42;100.00
45941;BME280;31858;46.008;8.978;2023-03-12T08:53:19;94113.31;;;7.51;100.00
45941;BME280;31858;46.008;8.978;2023-03-12T09:03:22;94113.22;;;7.77;100.00
45941;BME280;31858;46.008;8.978;2023-03-12T09:13:25;94115.47;;;8.16;100.00
45941;BME280;31858;46.008;8.978;2023-03-12T09:23:27;94113.00;;;8.34;100.00
45941;BME280;31858;46.008;8.978;2023-03-12T09:33:30;94131.00;;;8.55;100.00
45941;BME280;31858;46.008;8.978;2023-03-12T09:43:36;94125.56;;;8.88;100.00
45941;BME280;31858;46.008;8.978;2023-03-12T09:53:43;94127.97;;;9.14;100.00
45941;BME280;31858;46.008;8.978;2023-03-12T10:04:05;94124.72;;;9.42;100.00
45941;BME280;31858;46.008;8.978;2023-03-12T10:14:21;94138.84;;;9.61;100.00
45941;BME280;31858;46.008;8.978;2023-03-12T10:24:34;94141.94;;;9.73;100.00
45941;BME280;31858;46.008;8.978;2023-03-12T10:34:43;94126.09;;;10.12;100.00
45941;BME280;31858;46.008;8.978;2023-03-12T10:44:50;94129.56;;;10.41;100.00
45941;BME280;31858;46.008;8.978;2023-03-12T10:54:54;94139.84;;;10.61;100.00
45941;BME280;31858;46.008;8.978;2023-03-12T11:04:57;94145.19;;;10.75;100.00
45941;BME280;31858;46.008;8.978;2023-03-12T11:15:17;94154.28;;;11.17;99.01
45941;BME280;31858;46.008;8.978;2023-03-12T11:25:21;94145.47;;;11.41;93.11
45941;BME280;31858;46.008;8.978;2023-03-12T11:35:33;94151.06;;;11.82;95.75
45941;BME280;31858;46.008;8.978;2023-03-12T11:45:45;94143.34;;;11.98;83.81
45941;BME280;31858;46.008;8.978;2023-03-12T11:56:00;94161.41;;;12.50;86.29
45941;BME280;31858;46.008;8.978;2023-03-12T12:06:06;94160.16;;;12.61;76.36
45941;BME280;31858;46.008;8.978;2023-03-12T12:16:24;94152.38;;;12.81;75.16
45941;BME280;31858;46.008;8.978;2023-03-12T12:26:32;94142.31;;;12.99;76.65
45941;BME280;31858;46.008;8.978;2023-03-12T12:36:41;94137.09;;;13.26;76.65
45941;BME280;31858;46.008;8.978;2023-03-12T12:46:49;94125.97;;;13.65;67.70
45941;BME280;31858;46.008;8.978;2023-03-12T12:56:58;94122.38;;;14.10;68.02
45941;BME280;31858;46.008;8.978;2023-03-12T13:07:03;94117.72;;;14.14;63.53
45941;BME280;31858;46.008;8.978;2023-03-12T13:17:24;94109.94;;;14.23;65.64
45941;BME280;31858;46.008;8.978;2023-03-12T13:27:29;94104.13;;;14.55;60.25
45941;BME280;31858;46.008;8.978;2023-03-12T13:37:59;94108.34;;;14.79;61.31
45941;BME280;31858;46.008;8.978;2023-03-12T13:48:02;94113.47;;;15.17;57.78
45941;BME280;31858;46.008;8.978;2023-03-12T13:58:08;94103.91;;;15.16;57.02
45941;BME280;31858;46.008;8.978;2023-03-12T14:08:37;94121.00;;;15.02;58.60
45941;BME280;31858;46.008;8.978;2023-03-12T14:18:45;94123.50;;;15.13;57.74
45941;BME280;31858;46.008;8.978;2023-03-12T14:28:53;94124.25;;;15.13;59.06
45941;BME280;31858;46.008;8.978;2023-03-12T14:39:07;94120.25;;;15.01;60.52
45941;BME280;31858;46.008;8.978;2023-03-12T14:49:18;94125.72;;;15.18;60.81
45941;BME280;31858;46.008;8.978;2023-03-12T14:59:24;94120.63;;;15.23;61.78
45941;BME280;31858;46.008;8.978;2023-03-12T15:09:29;94122.63;;;15.19;60.84
45941;BME280;31858;46.008;8.978;2023-03-12T15:19:35;94111.31;;;15.08;60.04
45941;BME280;31858;46.008;8.978;2023-03-12T15:29:40;94121.94;;;15.15;59.97
45941;BME280;31858;46.008;8.978;2023-03-12T15:39:46;94120.78;;;14.93;62.17
45941;BME280;31858;46.008;8.978;2023-03-12T15:49:51;94110.16;;;14.86;61.74
45941;BME280;31858;46.008;8.978;2023-03-12T16:00:16;94107.06;;;14.64;60.68
45941;BME280;31858;46.008;8.978;2023-03-12T16:10:21;94122.59;;;14.49;63.41
45941;BME280;31858;46.008;8.978;2023-03-12T16:20:25;94151.66;;;14.24;63.71
45941;BME280;31858;46.008;8.978;2023-03-12T16:30:29;94164.94;;;14.04;66.83
45941;BME280;31858;46.008;8.978;2023-03-12T16:40:35;94170.22;;;13.77;68.61
45941;BME280;31858;46.008;8.978;2023-03-12T16:50:37;94183.63;;;13.36;70.78
45941;BME280;31858;46.008;8.978;2023-03-12T17:00:40;94200.28;;;13.10;74.84
45941;BME280;31858;46.008;8.978;2023-03-12T17:10:42;94226.53;;;12.73;78.65
45941;BME280;31858;46.008;8.978;2023-03-12T17:20:45;94249.25;;;12.37;85.73
45941;BME280;31858;46.008;8.978;2023-03-12T17:30:47;94253.47;;;12.31;88.50
45941;BME280;31858;46.008;8.978;2023-03-12T17:40:50;94262.31;;;12.14;90.41
45941;BME280;31858;46.008;8.978;2023-03-12T17:50:52;94276.84;;;12.02;95.04
45941;BME280;31858;46.008;8.978;2023-03-12T18:00:57;94302.06;;;11.87;99.40
45941;BME280;31858;46.008;8.978;2023-03-12T18:10:59;94330.66;;;11.72;100.00
45941;BME280;31858;46.008;8.978;2023-03-12T18:21:03;94357.00;;;11.66;100.00
45941;BME280;31858;46.008;8.978;2023-03-12T18:31:05;94365.38;;;11.68;100.00
45941;BME280;31858;46.008;8.978;2023-03-12T18:41:10;94373.75;;;11.49;100.00
45941;BME280;31858;46.008;8.978;2023-03-12T18:51:12;94372.97;;;11.41;100.00
45941;BME280;31858;46.008;8.978;2023-03-12T19:01:15;94384.78;;;11.37;100.00
45941;BME280;31858;46.008;8.978;2023-03-12T19:11:17;94391.63;;;11.20;100.00
45941;BME280;31858;46.008;8.978;2023-03-12T19:21:20;94405.34;;;11.19;100.00
45941;BME280;31858;46.008;8.978;2023-03-12T19:31:22;94410.66;;;11.11;100.00
45941;BME280;31858;46.008;8.978;2023-03-12T19:41:25;94411.78;;;11.10;100.00
45941;BME280;31858;46.008;8.978;2023-03-12T19:51:27;94426.25;;;11.09;100.00
45941;BME280;31858;46.008;8.978;2023-03-12T20:01:30;94435.31;;;10.87;100.00
45941;BME280;31858;46.008;8.978;2023-03-12T20:11:32;94457.75;;;10.79;100.00
45941;BME280;31858;46.008;8.978;2023-03-12T20:21:36;94471.00;;;10.65;100.00
45941;BME280;31858;46.008;8.978;2023-03-12T20:31:40;94494.50;;;10.49;100.00
45941;BME280;31858;46.008;8.978;2023-03-12T20:41:43;94516.16;;;10.43;100.00
45941;BME280;31858;46.008;8.978;2023-03-12T20:51:45;94541.22;;;10.35;100.00
45941;BME280;31858;46.008;8.978;2023-03-12T21:01:48;94543.84;;;10.28;100.00
45941;BME280;31858;46.008;8.978;2023-03-12T21:11:49;94553.22;;;10.15;100.00
45941;BME280;31858;46.008;8.978;2023-03-12T21:21:52;94561.41;;;9.96;100.00
45941;BME280;31858;46.008;8.978;2023-03-12T21:31:54;94576.09;;;9.82;100.00
45941;BME280;31858;46.008;8.978;2023-03-12T21:41:58;94585.53;;;9.76;100.00
45941;BME280;31858;46.008;8.978;2023-03-12T21:51:59;94600.84;;;9.87;100.00
45941;BME280;31858;46.008;8.978;2023-03-12T22:02:02;94602.66;;;9.79;100.00
45941;BME280;31858;46.008;8.978;2023-03-12T22:12:04;94608.47;;;9.55;100.00
45941;BME280;31858;46.008;8.978;2023-03-12T22:22:07;94605.47;;;9.60;100.00
45941;BME280;31858;46.008;8.978;2023-03-12T22:32:09;94604.41;;;9.34;100.00
45941;BME280;31858;46.008;8.978;2023-03-12T22:42:12;94595.75;;;9.07;100.00
45941;BME280;31858;46.008;8.978;2023-03-12T22:52:13;94581.94;;;8.98;100.00
45941;BME280;31858;46.008;8.978;2023-03-12T23:02:17;94566.56;;;8.85;100.00
45941;BME280;31858;46.008;8.978;2023-03-12T23:12:18;94568.25;;;8.70;100.00
45941;BME280;31858;46.008;8.978;2023-03-12T23:22:21;94583.78;;;8.68;100.00
45941;BME280;31858;46.008;8.978;2023-03-12T23:32:23;94575.19;;;8.52;100.00
45941;BME280;31858;46.008;8.978;2023-03-12T23:42:26;94569.94;;;8.55;100.00
45941;BME280;31858;46.008;8.978;2023-03-12T23:52:28;94573.44;;;8.36;100.00
